sensor_id;sensor_type;location;lat;lon;timestamp;pressure;altitude;pressure_sealevel;temperature;humidity
31011;BME280;26395;53.412;19.598;2023-03-05T00:05:34;99756.10;;;0.83;50.79
31011;BME280;26395;53.412;19.598;2023-03-05T00:20:37;99749.45;;;0.66;51.67
31011;BME280;26395;53.412;19.598;2023-03-05T00:35:42;99728.23;;;0.57;51.63
31011;BME280;26395;53.412;19.598;2023-03-05T00:50:45;99711.15;;;0.46;52.26
31011;BME280;26395;53.412;19.598;2023-03-05T01:05:49;99706.38;;;0.32;53.04
31011;BME280;26395;53.412;19.598;2023-03-05T01:20:52;99692.36;;;0.28;53.21
31011;BME280;26395;53.412;19.598;2023-03-05T01:35:55;99677.13;;;0.23;53.90
31011;BME280;26395;53.412;19.598;2023-03-05T01:50:58;99671.38;;;0.27;54.52
31011;BME280;26395;53.412;19.598;2023-03-05T02:06:02;99656.59;;;0.34;55.06
31011;BME280;26395;53.412;19.598;2023-03-05T02:21:09;99643.46;;;0.44;54.82
31011;BME280;26395;53.412;19.598;2023-03-05T02:36:13;99631.88;;;0.51;55.33
31011;BME280;26395;53.412;19.598;2023-03-05T02:51:16;99618.40;;;0.58;55.67
31011;BME280;26395;53.412;19.598;2023-03-05T03:06:21;99610.92;;;0.54;55.48
31011;BME280;26395;53.412;19.598;2023-03-05T03:21:25;99598.63;;;0.48;56.40
31011;BME280;26395;53.412;19.598;2023-03-05T03:36:28;99588.41;;;0.56;57.16
31011;BME280;26395;53.412;19.598;2023-03-05T03:51:32;99569.13;;;0.53;58.16
31011;BME280;26395;53.412;19.598;2023-03-05T04:06:35;99553.53;;;0.52;58.12
31011;BME280;26395;53.412;19.598;2023-03-05T04:21:39;99531.52;;;0.43;58.50
31011;BME280;26395;53.412;19.598;2023-03-05T04:36:42;99484.98;;;0.35;59.29
31011;BME280;26395;53.412;19.598;2023-03-05T04:51:45;99472.84;;;0.34;59.52
31011;BME280;26395;53.412;19.598;2023-03-05T05:06:48;99468.52;;;0.34;60.35
31011;BME280;26395;53.412;19.598;2023-03-05T05:21:51;99455.52;;;0.30;60.58
31011;BME280;26395;53.412;19.598;2023-03-05T05:36:54;99457.75;;;0.33;61.85
31011;BME280;26395;53.412;19.598;2023-03-05T05:51:58;99460.55;;;0.41;62.23
31011;BME280;26395;53.412;19.598;2023-03-05T06:07:01;99453.73;;;0.58;62.49
31011;BME280;26395;53.412;19.598;2023-03-05T06:22:06;99447.64;;;0.76;62.58
31011;BME280;26395;53.412;19.598;2023-03-05T06:37:09;99436.38;;;1.03;62.83
31011;BME280;26395;53.412;19.598;2023-03-05T06:52:12;99438.55;;;1.91;62.18
31011;BME280;26395;53.412;19.598;2023-03-05T07:07:15;99438.80;;;2.60;61.13
31011;BME280;26395;53.412;19.598;2023-03-05T07:22:18;99443.09;;;3.57;59.59
31011;BME280;26395;53.412;19.598;2023-03-05T07:37:22;99435.52;;;3.59;58.37
31011;BME280;26395;53.412;19.598;2023-03-05T07:52:25;99434.36;;;3.58;58.18
31011;BME280;26395;53.412;19.598;2023-03-05T08:07:28;99439.91;;;3.56;57.79
31011;BME280;26395;53.412;19.598;2023-03-05T08:22:32;99432.58;;;3.69;57.94
31011;BME280;26395;53.412;19.598;2023-03-05T08:37:36;99425.94;;;3.93;57.55
31011;BME280;26395;53.412;19.598;2023-03-05T08:52:39;99419.85;;;4.54;56.54
31011;BME280;26395;53.412;19.598;2023-03-05T09:07:43;99413.55;;;4.84;56.10
31011;BME280;26395;53.412;19.598;2023-03-05T09:22:46;99418.95;;;4.84;56.07
31011;BME280;26395;53.412;19.598;2023-03-05T09:37:49;99415.71;;;4.81;56.04
31011;BME280;26395;53.412;19.598;2023-03-05T09:52:56;99407.54;;;5.23;55.51
31011;BME280;26395;53.412;19.598;2023-03-05T10:08:03;99396.33;;;5.25;55.67
31011;BME280;26395;53.412;19.598;2023-03-05T10:53:49;99371.16;;;5.21;55.26
31011;BME280;26395;53.412;19.598;2023-03-05T11:08:54;99362.39;;;5.37;54.16
31011;BME280;26395;53.412;19.598;2023-03-05T11:24:16;99355.20;;;5.55;55.18
31011;BME280;26395;53.412;19.598;2023-03-05T11:39:25;99349.89;;;5.84;54.75
31011;BME280;26395;53.412;19.598;2023-03-05T11:54:38;99337.08;;;6.11;54.39
31011;BME280;26395;53.412;19.598;2023-03-05T12:09:49;99326.48;;;5.99;54.58
31011;BME280;26395;53.412;19.598;2023-03-05T12:40:29;99296.20;;;7.43;52.48
31011;BME280;26395;53.412;19.598;2023-03-05T12:55:37;99287.70;;;7.12;51.12
31011;BME280;26395;53.412;19.598;2023-03-05T13:10:56;99284.84;;;6.05;52.37
31011;BME280;26395;53.412;19.598;2023-03-05T13:26:11;99281.56;;;5.80;53.33
31011;BME280;26395;53.412;19.598;2023-03-05T13:41:21;99277.05;;;7.26;52.25
31011;BME280;26395;53.412;19.598;2023-03-05T13:56:29;99283.23;;;6.00;53.66
31011;BME280;26395;53.412;19.598;2023-03-05T14:11:33;99281.73;;;5.64;62.25
31011;BME280;26395;53.412;19.598;2023-03-05T14:26:47;99264.06;;;14.54;51.35
31011;BME280;26395;53.412;19.598;2023-03-05T14:41:51;99266.68;;;10.51;48.50
31011;BME280;26395;53.412;19.598;2023-03-05T14:56:55;99260.69;;;11.65;49.05
31011;BME280;26395;53.412;19.598;2023-03-05T15:11:58;99262.08;;;15.75;43.32
31011;BME280;26395;53.412;19.598;2023-03-05T15:27:02;99251.69;;;13.75;42.71
31011;BME280;26395;53.412;19.598;2023-03-05T15:42:05;99253.66;;;7.31;49.35
31011;BME280;26395;53.412;19.598;2023-03-05T15:57:10;99251.27;;;5.22;52.95
31011;BME280;26395;53.412;19.598;2023-03-05T16:12:18;99255.95;;;4.10;55.67
31011;BME280;26395;53.412;19.598;2023-03-05T16:27:22;99261.50;;;3.30;59.37
31011;BME280;26395;53.412;19.598;2023-03-05T16:42:25;99268.13;;;2.98;61.15
31011;BME280;26395;53.412;19.598;2023-03-05T16:57:29;99269.41;;;2.85;61.46
31011;BME280;26395;53.412;19.598;2023-03-05T17:12:32;99272.14;;;2.46;63.28
31011;BME280;26395;53.412;19.598;2023-03-05T17:27:36;99271.23;;;2.22;64.35
31011;BME280;26395;53.412;19.598;2023-03-05T17:42:39;99273.21;;;2.13;64.88
31011;BME280;26395;53.412;19.598;2023-03-05T17:57:43;99270.59;;;2.04;64.83
31011;BME280;26395;53.412;19.598;2023-03-05T18:12:47;99264.11;;;1.92;65.27
31011;BME280;26395;53.412;19.598;2023-03-05T18:27:52;99265.96;;;1.78;65.28
31011;BME280;26395;53.412;19.598;2023-03-05T18:43:00;99274.52;;;1.71;65.72
31011;BME280;26395;53.412;19.598;2023-03-05T18:58:04;99266.91;;;1.45;67.30
31011;BME280;26395;53.412;19.598;2023-03-05T19:13:35;99270.45;;;1.39;67.98
31011;BME280;26395;53.412;19.598;2023-03-05T19:28:42;99273.71;;;1.15;69.79
31011;BME280;26395;53.412;19.598;2023-03-05T19:43:48;99280.67;;;1.13;69.26
31011;BME280;26395;53.412;19.598;2023-03-05T19:58:55;99282.82;;;1.04;69.31
31011;BME280;26395;53.412;19.598;2023-03-05T20:14:01;99281.22;;;0.87;70.38
31011;BME280;26395;53.412;19.598;2023-03-05T20:29:09;99274.50;;;0.87;70.57
31011;BME280;26395;53.412;19.598;2023-03-05T20:44:19;99272.17;;;0.82;69.85
31011;BME280;26395;53.412;19.598;2023-03-05T20:59:24;99265.28;;;0.72;69.95
31011;BME280;26395;53.412;19.598;2023-03-05T21:14:27;99256.83;;;0.56;69.88
31011;BME280;26395;53.412;19.598;2023-03-05T21:29:44;99250.01;;;0.38;70.26
31011;BME280;26395;53.412;19.598;2023-03-05T21:44:47;99250.38;;;0.17;71.33
31011;BME280;26395;53.412;19.598;2023-03-05T21:59:51;99248.08;;;0.10;71.04
31011;BME280;26395;53.412;19.598;2023-03-05T22:14:54;99241.74;;;0.04;71.23
31011;BME280;26395;53.412;19.598;2023-03-05T22:30:00;99233.60;;;-0.15;73.14
31011;BME280;26395;53.412;19.598;2023-03-05T22:45:05;99226.62;;;-0.19;73.46
31011;BME280;26395;53.412;19.598;2023-03-05T23:00:14;99214.08;;;-0.13;72.71
31011;BME280;26395;53.412;19.598;2023-03-05T23:15:21;99204.25;;;-0.13;72.38
31011;BME280;26395;53.412;19.598;2023-03-05T23:30:28;99198.79;;;-0.07;71.45
31011;BME280;26395;53.412;19.598;2023-03-05T23:45:32;99190.24;;;-0.08;70.73
